createdAt,value
2018-05-21T00:01:59.067Z,46.10
2018-05-21T00:04:27.265Z,46.67
2018-05-21T00:06:55.481Z,46.13
2018-05-21T00:09:23.756Z,45.93
2018-05-21T00:11:52.105Z,45.83
2018-05-21T00:14:20.325Z,44.70
2018-05-21T00:16:49.345Z,47.53
2018-05-21T00:19:19.291Z,45.87
2018-05-21T00:21:47.563Z,43.93
2018-05-21T00:24:15.772Z,43.57
2018-05-21T00:26:43.987Z,46.03
2018-05-21T00:29:12.353Z,46.43
2018-05-21T00:31:41.327Z,44.87
2018-05-21T00:34:10.339Z,45.47
2018-05-21T00:36:39.376Z,44.27
2018-05-21T00:39:07.617Z,46.17
2018-05-21T00:41:35.936Z,45.53
2018-05-21T00:44:04.147Z,51.13
2018-05-21T00:46:32.411Z,51.07
2018-05-21T00:49:00.685Z,47.03
2018-05-21T00:51:29.703Z,44.63
2018-05-21T00:53:58.685Z,42.97
2018-05-21T00:56:26.918Z,44.53
2018-05-21T00:58:55.219Z,43.10
2018-05-21T01:01:23.491Z,43.53
2018-05-21T01:03:51.712Z,41.97
2018-05-21T01:06:20.234Z,46.90
2018-05-21T01:08:48.490Z,45.33
2018-05-21T01:11:16.699Z,43.33
2018-05-21T01:13:44.975Z,42.93
2018-05-21T01:16:13.220Z,42.37
2018-05-21T01:18:42.346Z,40.63
2018-05-21T01:21:10.742Z,39.37
2018-05-21T01:23:38.995Z,38.00
2018-05-21T01:26:07.264Z,43.37
2018-05-21T01:28:35.573Z,39.87
2018-05-21T01:31:03.855Z,41.33
2018-05-21T01:33:32.130Z,40.03
2018-05-21T01:36:01.246Z,40.50
2018-05-21T01:38:31.067Z,42.53
2018-05-21T01:40:59.315Z,42.83
2018-05-21T01:43:28.146Z,41.03
2018-05-21T01:45:56.381Z,47.90
2018-05-21T01:48:24.658Z,43.33
2018-05-21T01:50:52.942Z,42.33
2018-05-21T01:53:21.203Z,40.93
2018-05-21T01:55:49.565Z,45.93
2018-05-21T01:58:19.575Z,53.70
2018-05-21T02:00:47.902Z,54.23
2018-05-21T02:03:16.853Z,55.53
2018-05-21T02:05:57.977Z,50.60
2018-05-21T02:08:27.223Z,44.73
2018-05-21T02:10:55.769Z,45.30
2018-05-21T02:13:23.977Z,50.00
2018-05-21T02:15:53.718Z,55.00
2018-05-21T02:18:22.056Z,55.43
2018-05-21T02:20:50.270Z,50.80
2018-05-21T02:23:18.521Z,49.13
2018-05-21T02:25:47.496Z,44.03
2018-05-21T02:28:15.731Z,44.03
2018-05-21T02:30:44.691Z,47.77
2018-05-21T02:33:13.695Z,51.93
2018-05-21T02:35:41.919Z,63.17
2018-05-21T02:38:10.195Z,65.03
2018-05-21T02:40:38.452Z,55.80
2018-05-21T02:43:06.714Z,44.67
2018-05-21T02:45:35.029Z,42.83
2018-05-21T02:48:03.271Z,41.47
2018-05-21T02:50:32.246Z,48.53
2018-05-21T02:53:01.980Z,57.37
2018-05-21T02:55:30.240Z,62.33
2018-05-21T02:57:58.500Z,58.20
2018-05-21T03:00:26.855Z,50.53
2018-05-21T03:02:55.916Z,48.17
2018-05-21T03:05:24.259Z,48.30
2018-05-21T03:07:52.529Z,44.70
2018-05-21T03:10:20.782Z,45.73
2018-05-21T03:12:49.081Z,50.33
2018-05-21T03:15:17.341Z,56.07
2018-05-21T03:17:45.627Z,67.77
2018-05-21T03:20:13.888Z,65.60
2018-05-21T03:22:42.179Z,62.17
2018-05-21T03:25:10.560Z,58.90
2018-05-21T03:27:38.851Z,61.17
2018-05-21T03:30:07.121Z,59.57
2018-05-21T03:32:35.593Z,56.27
2018-05-21T03:35:03.999Z,54.50
2018-05-21T03:37:33.297Z,53.37
2018-05-21T03:40:01.534Z,49.90
2018-05-21T03:42:29.791Z,53.63
2018-05-21T03:44:59.029Z,50.83
2018-05-21T03:47:27.293Z,46.37
2018-05-21T03:49:55.541Z,48.70
2018-05-21T03:52:23.777Z,55.07
2018-05-21T03:54:52.911Z,54.17
2018-05-21T03:57:21.907Z,53.80
2018-05-21T04:00:02.889Z,55.10
2018-05-21T04:02:43.178Z,57.83
2018-05-21T04:05:11.393Z,53.57
2018-05-21T04:07:39.820Z,52.70
2018-05-21T04:10:08.890Z,49.93
2018-05-21T04:12:38.068Z,52.43
2018-05-21T04:15:06.482Z,51.70
2018-05-21T04:17:34.828Z,49.47
2018-05-21T04:20:03.094Z,50.27
2018-05-21T04:22:31.464Z,48.13
2018-05-21T04:24:59.820Z,47.43
2018-05-21T04:27:28.044Z,47.47
2018-05-21T04:29:56.296Z,46.43
2018-05-21T04:32:24.544Z,47.63
2018-05-21T04:34:52.779Z,48.47
2018-05-21T04:37:21.042Z,49.43
2018-05-21T04:39:49.222Z,47.30
2018-05-21T04:42:17.414Z,51.63
2018-05-21T04:44:45.772Z,50.43
2018-05-21T04:47:14.005Z,51.87
2018-05-21T04:49:42.247Z,49.50
2018-05-21T04:52:10.458Z,48.77
2018-05-21T04:54:40.649Z,49.03
2018-05-21T04:57:09.819Z,48.80
2018-05-21T04:59:38.032Z,48.17
2018-05-21T05:02:07.070Z,49.13
2018-05-21T05:04:35.302Z,50.87
2018-05-21T05:07:03.562Z,49.13
2018-05-21T05:09:31.822Z,48.47
2018-05-21T05:12:00.051Z,52.80
2018-05-21T05:14:29.022Z,50.77
2018-05-21T05:16:57.203Z,52.40
2018-05-21T05:19:26.261Z,50.80
2018-05-21T05:21:54.455Z,51.73
2018-05-21T05:24:22.871Z,53.47
2018-05-21T05:26:51.887Z,52.30
2018-05-21T05:29:20.865Z,51.67
2018-05-21T05:31:49.847Z,51.50
2018-05-21T05:34:18.831Z,53.33
2018-05-21T05:36:47.080Z,51.80
2018-05-21T05:39:15.339Z,53.03
2018-05-21T05:41:43.593Z,53.93
2018-05-21T05:44:12.569Z,58.60
2018-05-21T05:46:42.341Z,56.30
2018-05-21T05:49:11.225Z,57.80
2018-05-21T05:51:40.246Z,58.53
2018-05-21T05:54:10.046Z,61.07
2018-05-21T05:56:38.271Z,61.43
2018-05-21T05:59:06.807Z,62.03
2018-05-21T06:01:35.367Z,63.90
2018-05-21T06:04:03.635Z,60.37
2018-05-21T06:06:31.943Z,62.60
2018-05-21T06:09:00.219Z,60.17
2018-05-21T06:11:28.458Z,60.70
2018-05-21T06:13:57.561Z,60.97
2018-05-21T06:16:25.789Z,61.13
2018-05-21T06:18:55.556Z,59.13
2018-05-21T06:21:23.866Z,59.17
2018-05-21T06:23:52.263Z,58.10
2018-05-21T06:26:20.504Z,59.33
2018-05-21T06:28:48.740Z,58.40
2018-05-21T06:31:18.634Z,57.87
2018-05-21T06:34:07.162Z,59.87
2018-05-21T06:36:35.446Z,55.70
2018-05-21T06:39:03.756Z,59.00
2018-05-21T06:41:32.776Z,61.30
2018-05-21T06:44:01.830Z,59.33
2018-05-21T06:46:30.140Z,58.30
2018-05-21T06:48:59.416Z,57.70
2018-05-21T06:54:25.414Z,56.33
2018-05-21T06:56:53.750Z,55.80
2018-05-21T06:59:27.278Z,53.37
2018-05-21T07:02:26.282Z,51.13
2018-05-21T07:08:02.432Z,47.23
2018-05-21T07:10:50.165Z,49.33
2018-05-21T07:16:16.440Z,48.03
2018-05-21T07:18:44.767Z,45.50
2018-05-21T07:21:13.150Z,43.63
2018-05-21T07:23:41.347Z,42.70
2018-05-21T07:26:09.631Z,42.93
2018-05-21T07:28:38.601Z,38.77
2018-05-21T07:31:06.881Z,38.57
2018-05-21T07:33:35.097Z,38.60
2018-05-21T07:36:04.493Z,39.53
2018-05-21T07:38:34.237Z,36.30
2018-05-21T07:41:02.477Z,39.30
2018-05-21T07:43:30.693Z,35.50
2018-05-21T07:45:59.003Z,33.57
2018-05-21T07:48:27.403Z,34.80
2018-05-21T07:50:55.637Z,34.23
2018-05-21T07:53:23.967Z,33.13
2018-05-21T07:55:52.372Z,32.43
2018-05-21T07:58:21.430Z,31.93
2018-05-21T08:00:49.650Z,30.77
2018-05-21T08:03:18.678Z,30.43
2018-05-21T08:05:47.293Z,28.00
2018-05-21T08:08:16.306Z,28.47
2018-05-21T08:10:44.649Z,27.53
2018-05-21T08:13:12.883Z,26.90
2018-05-21T08:15:41.870Z,29.07
2018-05-21T08:18:10.203Z,28.10
2018-05-21T08:20:38.584Z,27.03
2018-05-21T08:23:06.858Z,25.50
2018-05-21T08:25:35.140Z,26.53
2018-05-21T08:28:03.365Z,25.43
2018-05-21T08:30:32.527Z,25.40
2018-05-21T08:33:00.802Z,25.10
2018-05-21T08:35:29.072Z,24.13
2018-05-21T08:37:57.414Z,23.30
2018-05-21T08:40:26.409Z,24.30
2018-05-21T08:42:55.550Z,23.80
2018-05-21T08:45:24.564Z,24.33
2018-05-21T08:47:53.211Z,24.13
2018-05-21T08:50:21.608Z,22.53
2018-05-21T08:52:50.007Z,22.07
2018-05-21T08:55:18.342Z,21.80
2018-05-21T08:57:46.534Z,22.13
2018-05-21T09:00:14.731Z,22.37
2018-05-21T09:02:42.970Z,23.10
2018-05-21T09:05:11.284Z,23.80
2018-05-21T09:07:41.066Z,23.33
2018-05-21T09:10:16.685Z,24.13
2018-05-21T09:12:45.840Z,25.10
2018-05-21T09:15:14.125Z,25.93
2018-05-21T09:17:42.409Z,28.13
2018-05-21T09:20:10.812Z,28.90
2018-05-21T09:22:39.916Z,29.07
2018-05-21T09:25:08.106Z,29.50
2018-05-21T09:27:36.536Z,27.60
2018-05-21T09:30:05.485Z,26.93
2018-05-21T09:32:33.780Z,25.63
2018-05-21T09:35:02.142Z,26.13
2018-05-21T09:37:30.427Z,25.83
2018-05-21T09:39:58.712Z,23.03
2018-05-21T09:42:27.480Z,23.70
2018-05-21T09:44:55.745Z,25.40
2018-05-21T09:47:56.855Z,24.73
2018-05-21T09:50:25.457Z,21.90
2018-05-21T09:52:54.858Z,20.93
2018-05-21T09:55:23.513Z,20.93
2018-05-21T09:57:58.649Z,20.77
2018-05-21T10:00:41.458Z,19.93
2018-05-21T10:03:10.628Z,18.40
2018-05-21T10:05:39.027Z,17.83
2018-05-21T10:08:07.290Z,19.47
2018-05-21T10:10:51.771Z,19.43
2018-05-21T10:13:21.666Z,19.77
2018-05-21T10:15:59.546Z,18.30
2018-05-21T10:18:28.787Z,17.57
2018-05-21T10:20:57.914Z,18.30
2018-05-21T10:23:31.669Z,17.07
2018-05-21T10:26:11.185Z,17.10
2018-05-21T10:28:51.964Z,16.50
2018-05-21T10:31:22.219Z,16.30
2018-05-21T10:34:00.638Z,16.87
2018-05-21T10:36:29.724Z,16.00
2018-05-21T10:38:59.068Z,16.37
2018-05-21T10:41:27.962Z,16.87
2018-05-21T10:44:10.880Z,16.50
2018-05-21T10:46:42.187Z,16.40
2018-05-21T10:49:14.970Z,15.03
2018-05-21T10:51:47.926Z,15.83
2018-05-21T10:54:22.285Z,15.90
2018-05-21T10:56:54.615Z,14.40
2018-05-21T10:59:25.327Z,14.47
2018-05-21T11:01:53.619Z,15.43
2018-05-21T11:04:21.897Z,15.33
2018-05-21T11:06:50.140Z,15.10
2018-05-21T11:09:19.164Z,15.67
2018-05-21T11:11:47.420Z,14.43
2018-05-21T11:14:15.767Z,14.13
2018-05-21T11:16:44.015Z,13.53
2018-05-21T11:19:12.502Z,12.63
2018-05-21T11:21:40.786Z,12.93
2018-05-21T11:24:09.587Z,11.73
2018-05-21T11:26:38.754Z,10.40
2018-05-21T11:29:07.075Z,10.40
2018-05-21T11:31:37.126Z,10.53
2018-05-21T11:34:06.106Z,10.50
2018-05-21T11:37:03.346Z,9.57
2018-05-21T11:39:50.247Z,9.53
2018-05-21T11:42:25.387Z,9.70
2018-05-21T11:44:54.209Z,9.27
2018-05-21T11:47:23.283Z,10.30
2018-05-21T11:49:51.679Z,10.03
2018-05-21T11:52:21.440Z,9.17
2018-05-21T11:54:49.670Z,8.83
2018-05-21T11:57:19.339Z,9.43
2018-05-21T11:59:49.712Z,8.50
2018-05-21T12:02:21.502Z,8.63
2018-05-21T12:04:49.763Z,9.50
2018-05-21T12:07:20.385Z,9.70
2018-05-21T12:09:48.818Z,9.27
2018-05-21T12:12:34.184Z,8.97
2018-05-21T12:15:03.195Z,9.33
2018-05-21T12:17:33.147Z,8.63
2018-05-21T12:20:10.690Z,8.23
2018-05-21T12:22:39.911Z,8.83
2018-05-21T12:25:09.222Z,8.97
2018-05-21T12:27:37.489Z,8.40
2018-05-21T12:30:05.892Z,8.70
2018-05-21T12:32:34.879Z,7.07
2018-05-21T12:35:03.130Z,7.83
2018-05-21T12:37:31.335Z,8.77
2018-05-21T12:39:59.723Z,8.07
2018-05-21T12:42:37.788Z,8.60
2018-05-21T12:45:06.753Z,8.17
2018-05-21T12:47:35.771Z,8.33
2018-05-21T12:50:04.780Z,8.20
2018-05-21T12:52:33.074Z,8.03
2018-05-21T12:55:02.341Z,7.73
2018-05-21T12:57:31.203Z,8.10
2018-05-21T13:00:08.769Z,7.67
2018-05-21T13:02:37.937Z,7.53
2018-05-21T13:05:07.102Z,7.53
2018-05-21T13:07:37.704Z,7.60
2018-05-21T13:10:06.050Z,7.83
2018-05-21T13:12:35.046Z,7.40
2018-05-21T13:15:03.446Z,7.60
2018-05-21T13:17:32.544Z,6.87
2018-05-21T13:20:02.045Z,7.30
2018-05-21T13:22:31.127Z,7.80
2018-05-21T13:25:00.155Z,7.37
2018-05-21T13:27:53.723Z,6.80
2018-05-21T13:30:21.990Z,6.50
2018-05-21T13:32:51.761Z,6.37
2018-05-21T13:35:21.286Z,7.03
2018-05-21T13:37:49.518Z,6.27
2018-05-21T13:40:19.315Z,5.77
2018-05-21T13:42:47.558Z,5.93
2018-05-21T13:45:15.873Z,6.37
2018-05-21T13:47:45.791Z,5.90
2018-05-21T13:50:14.058Z,6.13
2018-05-21T13:52:43.025Z,6.17
2018-05-21T13:55:12.343Z,6.20
2018-05-21T13:57:41.440Z,5.33
2018-05-21T14:00:09.729Z,4.50
2018-05-21T14:02:37.988Z,4.40
2018-05-21T14:05:09.085Z,4.90
2018-05-21T14:07:37.352Z,4.37
2018-05-21T14:10:05.881Z,5.07
2018-05-21T14:12:34.362Z,5.13
2018-05-21T14:15:06.828Z,4.53
2018-05-21T14:17:35.181Z,5.00
2018-05-21T14:20:04.574Z,4.73
2018-05-21T14:22:33.184Z,5.43
2018-05-21T14:25:05.979Z,5.30
2018-05-21T14:27:34.305Z,5.53
2018-05-21T14:30:25.975Z,5.23
2018-05-21T14:33:02.800Z,5.40
2018-05-21T14:35:39.163Z,5.10
2018-05-21T14:38:07.653Z,5.10
2018-05-21T14:40:37.913Z,5.20
2018-05-21T14:43:06.938Z,5.17
2018-05-21T14:45:35.954Z,5.20
2018-05-21T14:48:04.213Z,5.60
2018-05-21T14:50:33.218Z,5.70
2018-05-21T14:53:02.251Z,5.60
2018-05-21T14:55:30.450Z,5.27
2018-05-21T14:58:03.966Z,5.43
2018-05-21T15:00:52.985Z,5.63
2018-05-21T15:03:21.827Z,5.37
2018-05-21T15:05:51.490Z,6.20
2018-05-21T15:08:19.827Z,5.30
2018-05-21T15:10:52.406Z,5.83
2018-05-21T15:13:22.908Z,5.40
2018-05-21T15:15:51.197Z,5.73
2018-05-21T15:18:21.021Z,5.90
2018-05-21T15:23:52.495Z,5.63
2018-05-21T15:26:23.811Z,5.90
2018-05-21T15:28:53.065Z,5.83
2018-05-21T15:31:22.307Z,5.20
2018-05-21T15:33:51.079Z,5.93
2018-05-21T15:36:20.353Z,6.00
2018-05-21T15:39:02.733Z,5.30
2018-05-21T15:41:40.623Z,4.90
2018-05-21T15:47:32.666Z,5.60
2018-05-21T15:50:01.802Z,4.53
2018-05-21T15:52:39.589Z,5.47
2018-05-21T15:55:10.313Z,4.83
2018-05-21T15:57:52.553Z,4.60
2018-05-21T16:00:20.890Z,4.83
2018-05-21T16:02:49.938Z,5.20
2018-05-21T16:05:18.434Z,5.10
2018-05-21T16:07:49.007Z,6.00
2018-05-21T16:10:18.438Z,5.40
2018-05-21T16:12:52.215Z,5.40
2018-05-21T16:15:28.616Z,4.87
2018-05-21T16:17:58.722Z,4.60
2018-05-21T16:20:27.990Z,4.87
2018-05-21T16:25:49.357Z,4.90
2018-05-21T16:28:19.519Z,4.70
2018-05-21T16:33:28.444Z,4.30
2018-05-21T16:35:57.853Z,4.22
2018-05-21T16:38:27.024Z,4.83
2018-05-21T16:40:56.124Z,4.80
2018-05-21T16:43:26.910Z,4.50
2018-05-21T16:46:00.889Z,4.53
2018-05-21T16:48:31.209Z,4.40
2018-05-21T16:50:59.686Z,4.78
2018-05-21T16:53:33.644Z,4.85
2018-05-21T16:58:47.243Z,4.30
2018-05-21T17:01:15.950Z,4.20
2018-05-21T17:03:45.132Z,4.40
2018-05-21T17:06:14.388Z,4.87
2018-05-21T17:08:43.432Z,4.80
2018-05-21T17:11:11.637Z,4.63
2018-05-21T17:13:41.243Z,4.73
2018-05-21T17:16:10.851Z,4.50
2018-05-21T17:18:39.322Z,4.30
2018-05-21T17:21:07.585Z,4.40
2018-05-21T17:23:36.776Z,3.97
2018-05-21T17:26:05.619Z,4.03
2018-05-21T17:28:34.716Z,4.33
2018-05-21T17:31:04.370Z,3.90
2018-05-21T17:33:32.591Z,4.20
2018-05-21T17:36:00.833Z,3.97
2018-05-21T17:38:29.122Z,4.33
2018-05-21T17:40:57.390Z,4.10
2018-05-21T17:43:25.639Z,4.20
2018-05-21T17:45:54.812Z,4.33
2018-05-21T17:48:23.040Z,4.27
2018-05-21T17:50:51.889Z,4.20
2018-05-21T17:53:20.902Z,4.43
2018-05-21T17:55:49.359Z,4.33
2018-05-21T17:58:18.773Z,4.30
2018-05-21T18:00:47.840Z,4.10
2018-05-21T18:03:17.368Z,4.63
2018-05-21T18:05:45.565Z,4.37
2018-05-21T18:08:13.879Z,4.00
2018-05-21T18:10:42.168Z,4.40
2018-05-21T18:13:10.479Z,6.27
2018-05-21T18:15:38.821Z,5.57
2018-05-21T18:18:07.209Z,5.37
2018-05-21T18:20:35.585Z,5.47
2018-05-21T18:23:03.904Z,6.17
2018-05-21T18:25:43.738Z,6.03
2018-05-21T18:28:13.056Z,6.33
2018-05-21T18:30:52.765Z,6.50
2018-05-21T18:33:26.782Z,4.87
2018-05-21T18:35:55.098Z,4.73
2018-05-21T18:38:23.558Z,4.93
2018-05-21T18:40:51.932Z,5.47
2018-05-21T18:43:20.532Z,5.23
2018-05-21T18:45:51.797Z,5.27
2018-05-21T18:48:49.278Z,4.83
2018-05-21T18:51:20.622Z,4.37
2018-05-21T18:53:49.671Z,4.10
2018-05-21T18:56:17.964Z,3.97
2018-05-21T18:58:50.258Z,3.90
2018-05-21T19:01:23.255Z,4.50
2018-05-21T19:03:57.476Z,4.77
2018-05-21T19:06:36.719Z,4.90
2018-05-21T19:09:06.775Z,4.27
2018-05-21T19:11:35.494Z,3.40
2018-05-21T19:14:03.828Z,3.70
2018-05-21T19:16:32.029Z,3.50
2018-05-21T19:19:00.294Z,3.33
2018-05-21T19:21:29.491Z,3.47
2018-05-21T19:23:57.812Z,3.93
2018-05-21T19:26:26.992Z,3.53
2018-05-21T19:28:55.182Z,3.87
2018-05-21T19:31:24.170Z,4.07
2018-05-21T19:33:53.554Z,4.23
2018-05-21T19:36:21.837Z,4.60
2018-05-21T19:38:50.359Z,4.50
2018-05-21T19:41:24.422Z,4.53
2018-05-21T19:43:53.529Z,4.97
2018-05-21T19:46:23.642Z,4.60
2018-05-21T19:48:52.089Z,4.80
2018-05-21T19:51:22.677Z,4.43
2018-05-21T19:53:53.472Z,4.70
2018-05-21T19:56:27.218Z,6.37
2018-05-21T19:58:58.770Z,5.33
2018-05-21T20:01:27.970Z,5.60
2018-05-21T20:03:56.729Z,5.63
2018-05-21T20:06:27.402Z,5.37
2018-05-21T20:08:56.652Z,5.30
2018-05-21T20:11:25.732Z,4.50
2018-05-21T20:13:56.605Z,4.93
2018-05-21T20:16:28.999Z,5.00
2018-05-21T20:19:00.263Z,4.77
2018-05-21T20:21:31.225Z,4.20
2018-05-21T20:24:01.156Z,4.43
2018-05-21T20:26:29.569Z,7.07
2018-05-21T20:28:57.828Z,5.00
2018-05-21T20:31:26.203Z,5.43
2018-05-21T20:33:56.183Z,4.80
2018-05-21T20:36:24.538Z,4.30
2018-05-21T20:38:52.788Z,4.37
2018-05-21T20:41:21.812Z,3.70
2018-05-21T20:43:50.089Z,3.80
2018-05-21T20:46:18.334Z,3.77
2018-05-21T20:48:47.471Z,4.10
2018-05-21T20:51:16.687Z,3.83
2018-05-21T20:53:46.594Z,3.67
2018-05-21T20:56:15.706Z,3.43
2018-05-21T20:58:43.916Z,3.03
2018-05-21T21:01:12.952Z,3.10
2018-05-21T21:03:41.234Z,2.93
2018-05-21T21:06:09.469Z,3.40
2018-05-21T21:08:37.804Z,3.27
2018-05-21T21:11:07.715Z,3.57
2018-05-21T21:13:36.297Z,3.73
2018-05-21T21:16:04.509Z,3.50
2018-05-21T21:18:32.712Z,3.53
2018-05-21T21:21:01.693Z,3.70
2018-05-21T21:23:30.680Z,4.37
2018-05-21T21:25:59.841Z,4.50
2018-05-21T21:28:28.130Z,4.40
2018-05-21T21:30:57.497Z,4.40
2018-05-21T21:33:25.737Z,4.80
2018-05-21T21:35:54.176Z,4.70
2018-05-21T21:38:22.399Z,4.70
2018-05-21T21:40:50.614Z,4.07
2018-05-21T21:43:19.195Z,5.17
2018-05-21T21:45:48.232Z,5.43
2018-05-21T21:48:16.473Z,4.97
2018-05-21T21:50:44.810Z,5.17
2018-05-21T21:53:13.152Z,4.87
2018-05-21T21:55:41.428Z,5.33
2018-05-21T21:58:09.723Z,5.30
2018-05-21T22:00:38.056Z,5.73
2018-05-21T22:03:06.902Z,5.27
2018-05-21T22:05:35.104Z,5.33
2018-05-21T22:08:03.332Z,5.43
2018-05-21T22:10:31.714Z,5.87
2018-05-21T22:12:59.966Z,5.70
2018-05-21T22:15:28.164Z,5.33
2018-05-21T22:17:56.462Z,4.67
2018-05-21T22:20:24.683Z,5.17
2018-05-21T22:22:58.708Z,5.07
2018-05-21T22:25:26.979Z,5.67
2018-05-21T22:28:01.129Z,5.63
2018-05-21T22:30:35.250Z,5.47
2018-05-21T22:33:03.517Z,5.40
2018-05-21T22:35:31.702Z,6.03
2018-05-21T22:37:59.944Z,6.40
2018-05-21T22:40:28.166Z,6.33
2018-05-21T22:42:57.217Z,6.00
2018-05-21T22:45:25.498Z,6.63
2018-05-21T22:47:54.447Z,6.20
2018-05-21T22:50:23.417Z,6.30
2018-05-21T22:52:51.601Z,6.23
2018-05-21T22:55:20.043Z,6.27
2018-05-21T22:57:49.661Z,6.50
2018-05-21T23:00:18.019Z,6.83
2018-05-21T23:02:46.991Z,6.40
2018-05-21T23:05:16.696Z,8.03
2018-05-21T23:07:44.871Z,7.77
2018-05-21T23:10:13.840Z,8.70
2018-05-21T23:12:42.057Z,9.83
2018-05-21T23:21:58.658Z,10.03
2018-05-21T23:24:26.909Z,10.50
2018-05-21T23:26:55.779Z,9.07
2018-05-21T23:29:24.001Z,8.77
2018-05-21T23:31:52.180Z,9.70
2018-05-21T23:34:20.517Z,9.70
2018-05-21T23:36:48.851Z,9.67
2018-05-21T23:39:17.135Z,9.37
2018-05-21T23:41:45.407Z,9.03
2018-05-21T23:44:13.686Z,9.83
2018-05-21T23:46:41.964Z,8.83
2018-05-21T23:49:10.244Z,8.93
2018-05-21T23:51:38.934Z,8.83
2018-05-21T23:54:07.165Z,8.43
2018-05-21T23:56:36.147Z,8.43
2018-05-21T23:59:05.136Z,9.70
